createdAt,value
2022-11-12T00:00:59.189Z,64.62
2022-11-12T00:03:26.738Z,64.64
2022-11-12T00:05:53.728Z,64.64
2022-11-12T00:08:21.035Z,64.04
2022-11-12T00:10:47.687Z,63.75
2022-11-12T00:13:14.878Z,64.50
2022-11-12T00:15:41.966Z,64.10
2022-11-12T00:18:08.880Z,64.58
2022-11-12T00:20:41.940Z,64.18
2022-11-12T00:23:08.699Z,64.34
2022-11-12T00:25:45.148Z,64.24
2022-11-12T00:28:12.005Z,64.27
2022-11-12T00:30:39.978Z,64.07
2022-11-12T00:33:07.197Z,63.64
2022-11-12T00:35:34.832Z,63.13
2022-11-12T00:38:02.129Z,63.14
2022-11-12T00:40:29.629Z,63.15
2022-11-12T00:42:56.608Z,62.84
2022-11-12T00:45:23.801Z,63.79
2022-11-12T00:47:50.480Z,64.68
2022-11-12T00:50:17.381Z,64.62
2022-11-12T00:52:44.288Z,64.28
2022-11-12T00:55:11.451Z,64.25
2022-11-12T00:57:38.264Z,64.13
2022-11-12T01:00:08.235Z,64.07
2022-11-12T01:02:41.636Z,64.95
2022-11-12T01:05:10.476Z,64.63
2022-11-12T01:07:37.091Z,64.18
2022-11-12T01:10:04.171Z,64.30
2022-11-12T01:12:31.674Z,63.95
2022-11-12T01:14:58.405Z,64.55
2022-11-12T01:17:24.990Z,64.57
2022-11-12T01:19:51.625Z,63.57
2022-11-12T01:22:18.199Z,64.08
2022-11-12T01:24:44.953Z,64.59
2022-11-12T01:27:11.527Z,65.64
2022-11-12T01:29:38.100Z,64.44
2022-11-12T01:32:04.915Z,64.96
2022-11-12T01:34:31.562Z,65.17
2022-11-12T01:36:58.513Z,63.83
2022-11-12T01:39:25.313Z,64.57
2022-11-12T01:41:52.151Z,65.09
2022-11-12T01:44:25.210Z,64.57
2022-11-12T01:46:55.878Z,65.49
2022-11-12T01:49:32.686Z,65.50
2022-11-12T01:52:10.737Z,65.89
2022-11-12T01:54:38.496Z,64.64
2022-11-12T01:57:05.773Z,63.83
2022-11-12T01:59:38.590Z,64.79
2022-11-12T02:02:05.580Z,66.23
2022-11-12T02:04:33.596Z,66.14
2022-11-12T02:07:00.666Z,65.70
2022-11-12T02:09:27.638Z,66.16
2022-11-12T02:11:54.395Z,65.98
2022-11-12T02:14:21.497Z,65.43
2022-11-12T02:16:49.290Z,65.34
2022-11-12T02:19:17.344Z,65.62
2022-11-12T02:21:44.703Z,64.76
2022-11-12T02:24:14.411Z,65.82
2022-11-12T02:26:45.657Z,65.43
2022-11-12T02:29:12.589Z,65.51
2022-11-12T02:31:39.280Z,65.70
2022-11-12T02:34:05.906Z,65.70
2022-11-12T02:36:32.498Z,64.62
2022-11-12T02:38:59.159Z,64.11
2022-11-12T02:41:26.166Z,64.09
2022-11-12T02:43:52.752Z,64.73
2022-11-12T02:46:19.639Z,64.92
2022-11-12T02:48:46.788Z,64.01
2022-11-12T02:51:13.698Z,64.29
2022-11-12T02:53:40.337Z,64.33
2022-11-12T02:56:07.284Z,64.31
2022-11-12T02:58:33.862Z,64.12
2022-11-12T03:01:00.707Z,63.70
2022-11-12T03:03:27.341Z,64.32
2022-11-12T03:06:02.792Z,63.51
2022-11-12T03:08:29.576Z,64.57
2022-11-12T03:10:56.354Z,64.20
2022-11-12T03:13:23.008Z,64.09
2022-11-12T03:15:49.633Z,63.50
2022-11-12T03:18:16.416Z,63.70
2022-11-12T03:20:43.037Z,63.59
2022-11-12T03:23:11.152Z,63.37
2022-11-12T03:25:37.963Z,64.39
2022-11-12T03:28:10.177Z,65.08
2022-11-12T03:30:39.181Z,63.74
2022-11-12T03:33:07.055Z,64.84
2022-11-12T03:35:34.629Z,64.42
2022-11-12T03:38:02.244Z,64.81
2022-11-12T03:40:30.396Z,63.97
2022-11-12T03:42:57.127Z,63.79
2022-11-12T03:45:25.899Z,62.71
2022-11-12T03:47:55.466Z,61.95
2022-11-12T03:50:25.458Z,61.50
2022-11-12T03:52:54.252Z,60.78
2022-11-12T03:55:22.996Z,61.23
2022-11-12T03:57:51.295Z,61.47
2022-11-12T04:00:19.163Z,61.20
2022-11-12T04:02:45.852Z,62.17
2022-11-12T04:05:31.602Z,62.37
2022-11-12T04:08:17.500Z,62.75
2022-11-12T04:10:44.237Z,63.66
2022-11-12T04:13:29.001Z,67.38
2022-11-12T04:16:20.011Z,68.50
2022-11-12T04:19:07.882Z,64.96
2022-11-12T04:21:56.276Z,63.47
2022-11-12T04:24:58.101Z,62.44
2022-11-12T04:27:33.301Z,62.46
2022-11-12T04:30:19.072Z,61.82
2022-11-12T04:32:47.607Z,61.60
2022-11-12T04:35:14.404Z,61.75
2022-11-12T04:37:47.113Z,61.43
2022-11-12T04:40:40.293Z,61.22
2022-11-12T04:43:28.596Z,61.99
2022-11-12T04:45:56.072Z,61.51
2022-11-12T04:48:24.600Z,61.69
2022-11-12T04:50:57.909Z,60.28
2022-11-12T04:53:25.118Z,60.54
2022-11-12T04:55:52.592Z,62.03
2022-11-12T04:58:19.719Z,61.43
2022-11-12T05:00:46.712Z,60.91
2022-11-12T05:03:13.391Z,61.52
2022-11-12T05:05:40.287Z,59.92
2022-11-12T05:08:06.985Z,60.30
2022-11-12T05:10:33.619Z,61.35
2022-11-12T05:13:00.648Z,61.89
2022-11-12T05:15:27.240Z,66.22
2022-11-12T05:17:53.921Z,67.09
2022-11-12T05:20:20.701Z,67.92
2022-11-12T05:23:04.399Z,70.07
2022-11-12T05:25:32.589Z,68.54
2022-11-12T05:27:59.353Z,71.08
2022-11-12T05:30:26.042Z,71.38
2022-11-12T05:32:52.702Z,70.26
2022-11-12T05:35:19.311Z,69.43
2022-11-12T05:37:45.958Z,69.60
2022-11-12T05:40:13.189Z,66.40
2022-11-12T05:42:39.771Z,65.92
2022-11-12T05:45:07.260Z,64.53
2022-11-12T05:47:33.933Z,63.14
2022-11-12T05:50:00.538Z,63.03
2022-11-12T05:52:27.109Z,62.83
2022-11-12T05:54:53.715Z,62.58
2022-11-12T05:57:20.385Z,61.62
2022-11-12T05:59:46.951Z,61.65
2022-11-12T06:02:13.661Z,61.22
2022-11-12T06:04:40.388Z,61.10
2022-11-12T06:07:07.114Z,60.85
2022-11-12T06:09:33.794Z,61.29
2022-11-12T06:12:00.464Z,59.20
2022-11-12T06:14:27.128Z,59.73
2022-11-12T06:16:53.693Z,59.23
2022-11-12T06:19:20.256Z,60.07
2022-11-12T06:21:46.879Z,60.47
2022-11-12T06:24:13.766Z,60.69
2022-11-12T06:26:40.404Z,61.58
2022-11-12T06:29:07.103Z,59.77
2022-11-12T06:31:33.727Z,59.71
2022-11-12T06:34:00.347Z,59.61
2022-11-12T06:36:27.010Z,59.21
2022-11-12T06:38:53.649Z,60.02
2022-11-12T06:41:20.389Z,58.80
2022-11-12T06:43:47.232Z,59.12
2022-11-12T06:46:15.909Z,57.96
2022-11-12T06:48:42.657Z,58.43
2022-11-12T06:51:20.226Z,57.98
2022-11-12T06:53:47.547Z,59.39
2022-11-12T06:56:14.279Z,58.70
2022-11-12T06:58:40.919Z,56.52
2022-11-12T07:01:15.797Z,55.69
2022-11-12T07:03:44.165Z,57.75
2022-11-12T07:06:20.454Z,57.04
2022-11-12T07:08:49.179Z,55.99
2022-11-12T07:11:17.671Z,56.11
2022-11-12T07:13:45.396Z,55.59
2022-11-12T07:16:22.730Z,55.21
2022-11-12T07:18:50.291Z,56.33
2022-11-12T07:21:20.858Z,55.81
2022-11-12T07:23:48.070Z,56.00
2022-11-12T07:26:21.078Z,54.93
2022-11-12T07:28:50.393Z,53.72
2022-11-12T07:31:18.408Z,53.87
2022-11-12T07:33:45.522Z,52.88
2022-11-12T07:36:15.169Z,53.81
2022-11-12T07:38:43.107Z,55.53
2022-11-12T07:41:21.466Z,56.25
2022-11-12T07:43:50.051Z,55.42
2022-11-12T07:46:27.918Z,55.05
2022-11-12T07:48:55.426Z,54.21
2022-11-12T07:51:26.935Z,54.57
2022-11-12T07:53:59.349Z,54.84
2022-11-12T07:56:27.920Z,53.85
2022-11-12T07:58:54.536Z,53.04
2022-11-12T08:01:28.461Z,53.92
2022-11-12T08:03:55.120Z,53.60
2022-11-12T08:06:21.939Z,52.91
2022-11-12T08:08:51.314Z,53.24
2022-11-12T08:11:17.866Z,53.28
2022-11-12T08:13:44.489Z,53.43
2022-11-12T08:16:11.085Z,53.96
2022-11-12T08:18:37.841Z,52.72
2022-11-12T08:21:06.884Z,52.27
2022-11-12T08:23:33.965Z,53.08
2022-11-12T08:26:02.212Z,52.54
2022-11-12T08:28:30.587Z,52.79
2022-11-12T08:30:58.550Z,52.76
2022-11-12T08:33:25.137Z,52.73
2022-11-12T08:35:51.697Z,52.93
2022-11-12T08:38:18.311Z,53.70
2022-11-12T08:40:44.908Z,56.64
2022-11-12T08:43:11.494Z,56.10
2022-11-12T08:45:41.183Z,54.00
2022-11-12T08:48:12.552Z,55.39
2022-11-12T08:50:39.517Z,54.92
2022-11-12T08:53:09.563Z,54.94
2022-11-12T08:55:36.946Z,54.17
2022-11-12T08:58:04.686Z,54.29
2022-11-12T09:00:39.790Z,53.21
2022-11-12T09:03:08.137Z,53.71
2022-11-12T09:05:35.981Z,53.38
2022-11-12T09:08:14.273Z,53.83
2022-11-12T09:10:40.934Z,53.30
2022-11-12T09:13:07.627Z,53.17
2022-11-12T09:15:38.622Z,52.50
2022-11-12T09:18:07.901Z,53.26
2022-11-12T09:20:34.521Z,51.99
2022-11-12T09:23:03.654Z,53.08
2022-11-12T09:25:30.638Z,53.18
2022-11-12T09:27:57.336Z,52.37
2022-11-12T09:30:24.012Z,52.48
2022-11-12T09:32:50.702Z,54.51
2022-11-12T09:35:17.329Z,52.94
2022-11-12T09:37:44.137Z,53.10
2022-11-12T09:40:18.053Z,53.03
2022-11-12T09:42:50.196Z,51.74
2022-11-12T09:45:50.356Z,50.59
2022-11-12T09:48:32.709Z,51.05
2022-11-12T09:51:05.300Z,51.86
2022-11-12T09:53:44.081Z,55.01
2022-11-12T09:56:13.845Z,52.07
2022-11-12T09:58:40.469Z,54.90
2022-11-12T10:01:24.697Z,53.23
2022-11-12T10:04:14.954Z,52.54
2022-11-12T10:07:06.182Z,52.15
2022-11-12T10:10:09.008Z,52.02
2022-11-12T10:12:38.479Z,53.05
2022-11-12T10:15:51.665Z,53.69
2022-11-12T10:18:36.219Z,51.21
2022-11-12T10:21:29.779Z,50.85
2022-11-12T10:23:57.215Z,51.91
2022-11-12T10:26:26.142Z,51.33
2022-11-12T10:29:36.329Z,52.21
2022-11-12T10:32:03.665Z,51.71
2022-11-12T10:34:34.160Z,50.52
2022-11-12T10:37:05.772Z,50.17
2022-11-12T10:39:41.424Z,53.86
2022-11-12T10:42:11.076Z,53.79
2022-11-12T10:44:39.311Z,54.63
2022-11-12T10:47:30.318Z,55.84
2022-11-12T10:50:30.354Z,54.38
2022-11-12T10:53:03.687Z,52.59
2022-11-12T10:55:31.765Z,53.63
2022-11-12T10:58:20.616Z,54.20
2022-11-12T11:00:56.840Z,54.21
2022-11-12T11:03:36.202Z,53.57
2022-11-12T11:06:17.875Z,53.38
2022-11-12T11:08:47.560Z,52.93
2022-11-12T11:11:16.923Z,52.95
2022-11-12T11:13:52.767Z,57.72
2022-11-12T11:16:27.847Z,55.78
2022-11-12T11:19:05.288Z,53.81
2022-11-12T11:21:55.059Z,56.03
2022-11-12T11:24:24.578Z,55.35
2022-11-12T11:27:00.703Z,54.96
2022-11-12T11:29:33.272Z,54.46
2022-11-12T11:32:09.666Z,53.84
2022-11-12T11:34:46.462Z,54.90
2022-11-12T11:37:26.151Z,57.03
2022-11-12T11:40:14.647Z,55.62
2022-11-12T11:42:58.249Z,55.42
2022-11-12T11:45:53.693Z,54.56
2022-11-12T11:48:43.566Z,57.33
2022-11-12T11:51:15.529Z,57.40
2022-11-12T11:53:45.117Z,57.78
2022-11-12T11:56:19.938Z,57.59
2022-11-12T11:59:43.778Z,56.88
2022-11-12T12:02:12.975Z,54.81
2022-11-12T12:05:09.322Z,53.80
2022-11-12T12:08:20.691Z,56.83
2022-11-12T12:11:09.303Z,56.69
2022-11-12T12:13:48.005Z,54.80
2022-11-12T12:16:31.137Z,55.91
2022-11-12T12:19:25.203Z,54.23
2022-11-12T12:21:53.048Z,54.77
2022-11-12T12:24:40.196Z,53.47
2022-11-12T12:27:14.702Z,52.81
2022-11-12T12:29:49.297Z,53.02
2022-11-12T12:32:23.944Z,52.66
2022-11-12T12:35:13.336Z,53.54
2022-11-12T12:37:45.624Z,56.02
2022-11-12T12:40:25.219Z,55.69
2022-11-12T12:43:01.910Z,55.88
2022-11-12T12:45:36.108Z,55.70
2022-11-12T12:48:07.289Z,54.36
2022-11-12T12:50:50.001Z,53.64
2022-11-12T12:53:22.852Z,54.64
2022-11-12T12:55:51.777Z,57.26
2022-11-12T12:58:29.063Z,60.43
2022-11-12T13:01:00.992Z,59.10
2022-11-12T13:03:42.709Z,58.58
2022-11-12T13:06:27.990Z,60.02
2022-11-12T13:09:20.656Z,59.54
2022-11-12T13:12:06.556Z,58.50
2022-11-12T13:14:35.929Z,59.55
2022-11-12T13:17:08.485Z,60.73
2022-11-12T13:19:37.099Z,60.62
2022-11-12T13:22:19.046Z,60.32
2022-11-12T13:25:05.725Z,60.58
2022-11-12T13:27:44.375Z,61.80
2022-11-12T13:30:13.970Z,62.19
2022-11-12T13:32:46.509Z,62.54
2022-11-12T13:35:31.198Z,66.42
2022-11-12T13:38:03.522Z,65.40
2022-11-12T13:40:30.081Z,67.80
2022-11-12T13:43:40.506Z,65.93
2022-11-12T13:46:07.236Z,67.76
2022-11-12T13:48:42.795Z,68.10
2022-11-12T13:51:34.070Z,67.14
2022-11-12T13:54:01.450Z,68.19
2022-11-12T13:56:33.704Z,67.32
2022-11-12T13:59:24.046Z,68.53
2022-11-12T14:01:50.935Z,68.28
2022-11-12T14:04:21.100Z,69.47
2022-11-12T14:06:50.453Z,69.59
2022-11-12T14:09:25.879Z,68.23
2022-11-12T14:12:00.292Z,67.07
2022-11-12T14:14:37.620Z,70.48
2022-11-12T14:17:29.107Z,68.64
2022-11-12T14:19:55.726Z,68.46
2022-11-12T14:22:23.003Z,69.92
2022-11-12T14:24:58.917Z,71.74
2022-11-12T14:27:28.533Z,69.14
2022-11-12T14:30:10.153Z,67.91
2022-11-12T14:32:39.501Z,67.55
2022-11-12T14:35:25.504Z,67.56
2022-11-12T14:37:55.965Z,69.53
2022-11-12T14:40:24.765Z,68.26
2022-11-12T14:42:52.310Z,68.30
2022-11-12T14:45:21.752Z,67.21
2022-11-12T14:47:51.112Z,69.11
2022-11-12T14:50:37.504Z,66.77
2022-11-12T14:53:44.867Z,68.16
2022-11-12T14:56:23.656Z,66.63
2022-11-12T14:58:52.503Z,66.36
2022-11-12T15:02:08.509Z,64.69
2022-11-12T15:04:15.731Z,66.84
2022-11-12T15:06:42.396Z,66.08
2022-11-12T15:09:09.046Z,65.21
2022-11-12T15:11:44.877Z,65.57
2022-11-12T15:14:24.792Z,65.07
2022-11-12T15:16:53.394Z,65.57
2022-11-12T15:19:27.973Z,65.25
2022-11-12T15:21:57.799Z,68.17
2022-11-12T15:24:29.475Z,66.49
2022-11-12T15:26:58.002Z,65.95
2022-11-12T15:29:31.945Z,65.65
2022-11-12T15:32:00.124Z,64.62
2022-11-12T15:34:34.309Z,62.74
2022-11-12T15:37:05.837Z,62.58
2022-11-12T15:39:39.038Z,61.95
2022-11-12T15:42:25.952Z,62.46
2022-11-12T15:44:58.574Z,62.05
2022-11-12T15:47:25.297Z,60.99
2022-11-12T15:49:54.335Z,61.57
2022-11-12T15:52:22.007Z,60.38
2022-11-12T15:54:49.077Z,60.00
2022-11-12T15:57:29.924Z,60.18
2022-11-12T16:00:10.150Z,61.05
2022-11-12T16:02:36.785Z,60.97
2022-11-12T16:05:03.437Z,60.21
2022-11-12T16:07:30.145Z,60.47
2022-11-12T16:09:56.775Z,62.49
2022-11-12T16:12:23.423Z,61.99
2022-11-12T16:14:50.047Z,62.25
2022-11-12T16:17:18.088Z,61.44
2022-11-12T16:19:44.676Z,62.65
2022-11-12T16:22:14.467Z,61.73
2022-11-12T16:24:42.379Z,61.04
2022-11-12T16:27:15.545Z,59.96
2022-11-12T16:29:42.109Z,61.01
2022-11-12T16:32:13.653Z,60.52
2022-11-12T16:34:40.242Z,61.42
2022-11-12T16:37:12.635Z,60.78
2022-11-12T16:39:39.680Z,60.93
2022-11-12T16:42:06.411Z,61.04
2022-11-12T16:44:33.027Z,60.13
2022-11-12T16:47:03.356Z,61.98
2022-11-12T16:49:33.295Z,60.98
2022-11-12T16:52:04.069Z,61.04
2022-11-12T16:54:30.845Z,61.70
2022-11-12T16:56:57.508Z,62.53
2022-11-12T16:59:24.216Z,62.86
2022-11-12T17:01:50.857Z,61.47
2022-11-12T17:04:17.511Z,63.00
2022-11-12T17:06:44.101Z,64.62
2022-11-12T17:09:12.331Z,63.90
2022-11-12T17:11:39.100Z,63.31
2022-11-12T17:14:06.302Z,65.00
2022-11-12T17:16:33.445Z,64.92
2022-11-12T17:19:02.194Z,64.80
2022-11-12T17:21:29.576Z,64.88
2022-11-12T17:23:59.428Z,63.62
2022-11-12T17:26:26.056Z,63.62
2022-11-12T17:28:59.214Z,62.50
2022-11-12T17:31:27.933Z,63.83
2022-11-12T17:33:54.623Z,63.71
2022-11-12T17:36:27.034Z,62.21
2022-11-12T17:38:55.025Z,62.03
2022-11-12T17:41:21.829Z,62.27
2022-11-12T17:43:48.642Z,65.33
2022-11-12T17:46:15.306Z,65.40
2022-11-12T17:48:42.018Z,62.79
2022-11-12T17:51:11.887Z,63.21
2022-11-12T17:53:39.411Z,63.61
2022-11-12T17:56:07.604Z,61.24
2022-11-12T17:58:34.567Z,62.81
2022-11-12T18:01:14.804Z,64.40
2022-11-12T18:03:43.774Z,62.78
2022-11-12T18:06:12.937Z,64.78
2022-11-12T18:08:40.647Z,65.42
2022-11-12T18:11:12.068Z,65.24
2022-11-12T18:13:38.860Z,65.73
2022-11-12T18:16:34.890Z,64.48
2022-11-12T18:19:10.902Z,65.55
2022-11-12T18:21:39.923Z,65.83
2022-11-12T18:24:08.946Z,66.07
2022-11-12T18:26:35.655Z,67.38
2022-11-12T18:29:02.248Z,67.12
2022-11-12T18:31:29.225Z,64.58
2022-11-12T18:33:56.180Z,65.03
2022-11-12T18:36:25.584Z,64.63
2022-11-12T18:38:53.200Z,64.26
2022-11-12T18:41:25.656Z,64.33
2022-11-12T18:43:56.233Z,65.44
2022-11-12T18:46:23.259Z,66.36
2022-11-12T18:48:50.057Z,65.24
2022-11-12T18:51:30.550Z,63.83
2022-11-12T18:53:57.268Z,64.86
2022-11-12T18:56:24.168Z,64.56
2022-11-12T18:58:51.266Z,64.51
2022-11-12T19:01:21.346Z,64.18
2022-11-12T19:04:15.263Z,66.51
2022-11-12T19:07:18.464Z,66.96
2022-11-12T19:09:45.365Z,66.82
2022-11-12T19:12:28.761Z,66.20
2022-11-12T19:14:59.493Z,64.52
2022-11-12T19:17:37.290Z,63.69
2022-11-12T19:20:04.412Z,65.32
2022-11-12T19:22:31.453Z,64.99
2022-11-12T19:24:58.018Z,63.63
2022-11-12T19:27:24.606Z,65.21
2022-11-12T19:29:51.219Z,67.32
2022-11-12T19:32:17.898Z,66.82
2022-11-12T19:34:44.540Z,66.59
2022-11-12T19:37:32.473Z,67.81
2022-11-12T19:39:57.739Z,66.94
2022-11-12T19:42:24.373Z,67.41
2022-11-12T19:44:51.062Z,66.20
2022-11-12T19:47:17.703Z,66.07
2022-11-12T19:49:44.342Z,66.01
2022-11-12T19:52:10.984Z,65.08
2022-11-12T19:54:37.636Z,65.54
2022-11-12T19:57:04.363Z,64.43
2022-11-12T19:59:30.922Z,63.98
2022-11-12T20:01:57.569Z,63.44
2022-11-12T20:04:24.537Z,62.38
2022-11-12T20:06:51.249Z,62.04
2022-11-12T20:09:18.189Z,63.05
2022-11-12T20:11:44.836Z,61.59
2022-11-12T20:14:11.691Z,62.69
2022-11-12T20:16:39.107Z,62.57
2022-11-12T20:19:06.422Z,62.52
2022-11-12T20:21:32.994Z,62.29
2022-11-12T20:24:01.156Z,62.34
2022-11-12T20:26:27.953Z,62.04
2022-11-12T20:28:54.637Z,62.35
2022-11-12T20:31:21.693Z,63.10
2022-11-12T20:33:50.088Z,63.54
2022-11-12T20:36:20.689Z,63.48
2022-11-12T20:38:49.945Z,62.59
2022-11-12T20:41:18.881Z,61.97
2022-11-12T20:43:48.272Z,61.30
2022-11-12T20:46:14.836Z,61.60
2022-11-12T20:48:43.424Z,61.91
2022-11-12T20:51:24.122Z,61.02
2022-11-12T20:53:58.776Z,63.05
2022-11-12T20:56:28.297Z,62.70
2022-11-12T20:58:55.008Z,62.60
2022-11-12T21:01:23.844Z,61.91
2022-11-12T21:03:50.882Z,61.96
2022-11-12T21:06:22.145Z,61.52
2022-11-12T21:08:49.180Z,61.63
2022-11-12T21:11:17.897Z,61.68
2022-11-12T21:13:44.603Z,61.14
2022-11-12T21:16:12.673Z,60.54
2022-11-12T21:19:00.363Z,60.83
2022-11-12T21:21:39.264Z,60.72
2022-11-12T21:24:11.636Z,61.29
2022-11-12T21:26:42.408Z,62.50
2022-11-12T21:29:19.189Z,64.08
2022-11-12T21:31:47.967Z,64.13
2022-11-12T21:34:22.853Z,64.37
2022-11-12T21:36:55.077Z,64.28
2022-11-12T21:39:21.693Z,65.21
2022-11-12T21:42:02.485Z,65.81
2022-11-12T21:44:46.712Z,66.75
2022-11-12T21:47:13.315Z,66.35
2022-11-12T21:49:45.870Z,66.84
2022-11-12T21:52:12.986Z,67.12
2022-11-12T21:54:39.821Z,67.25
2022-11-12T21:57:06.630Z,68.48
2022-11-12T21:59:33.427Z,68.70
2022-11-12T22:02:00.045Z,69.21
2022-11-12T22:04:26.670Z,68.33
2022-11-12T22:06:53.283Z,68.10
2022-11-12T22:09:19.892Z,68.45
2022-11-12T22:11:46.558Z,68.34
2022-11-12T22:14:13.132Z,67.91
2022-11-12T22:16:39.719Z,66.05
2022-11-12T22:19:06.442Z,67.27
2022-11-12T22:21:39.493Z,67.28
2022-11-12T22:24:07.372Z,67.26
2022-11-12T22:26:34.014Z,67.18
2022-11-12T22:29:01.540Z,67.57
2022-11-12T22:31:30.762Z,68.13
2022-11-12T22:33:59.700Z,68.87
2022-11-12T22:36:29.219Z,68.33
2022-11-12T22:38:56.682Z,70.61
2022-11-12T22:41:25.790Z,71.15
2022-11-12T22:43:55.642Z,70.75
2022-11-12T22:46:24.719Z,70.19
2022-11-12T22:48:52.082Z,68.87
2022-11-12T22:51:24.161Z,68.40
2022-11-12T22:53:55.645Z,67.40
2022-11-12T22:56:23.506Z,66.01
2022-11-12T22:58:51.312Z,66.58
2022-11-12T23:01:28.282Z,66.14
2022-11-12T23:03:57.081Z,65.55
2022-11-12T23:06:24.846Z,64.89
2022-11-12T23:08:53.204Z,65.70
2022-11-12T23:11:20.321Z,66.48
2022-11-12T23:13:48.147Z,65.12
2022-11-12T23:16:25.744Z,66.45
2022-11-12T23:18:57.707Z,66.14
2022-11-12T23:21:26.906Z,67.56
2022-11-12T23:23:55.785Z,68.25
2022-11-12T23:26:25.085Z,68.04
2022-11-12T23:28:51.776Z,68.93
2022-11-12T23:31:26.669Z,68.63
2022-11-12T23:33:57.165Z,70.64
2022-11-12T23:36:25.550Z,70.03
2022-11-12T23:38:52.857Z,69.80
2022-11-12T23:41:22.849Z,68.72
2022-11-12T23:43:50.208Z,67.93
2022-11-12T23:46:16.867Z,69.60
2022-11-12T23:48:43.983Z,68.24
2022-11-12T23:51:13.382Z,68.03
2022-11-12T23:53:40.647Z,66.58
2022-11-12T23:56:09.455Z,65.71
2022-11-12T23:58:37.628Z,66.00
